Time;durP1;ratioP1;P1;durP2;ratioP2;P2;SDS_P1;SDS_P2;PMS_P1;PMS_P2;Temp;Humidity;BMP_temperature;BMP_pressure;BME280_temperature;BME280_humidity;BME280_pressure;Samples;Min_cycle;Max_cycle;Signal;HPM_P1;HPM_P2
2021/05/23 00:01:34;;;;;;;;;31.75;31.50;;;;;17.38;68.04;101122.28;5134880;27;9801;-75
2021/05/23 00:04:30;;;;;;;;;28.00;26.25;;;;;17.46;67.02;101124.03;5120339;27;9754;-75
2021/05/23 00:07:28;;;;;;;;;36.75;33.50;;;;;17.28;67.89;101132.06;5134088;27;9453;-75
2021/05/23 00:10:25;;;;;;;;;35.50;34.00;;;;;17.33;67.28;101128.97;5134137;27;9762;-76
2021/05/23 00:13:24;;;;;;;;;35.50;32.50;;;;;17.44;66.76;101115.22;5134714;27;9776;-76
2021/05/23 00:16:22;;;;;;;;;32.00;31.75;;;;;17.39;67.41;101124.69;5133798;27;9590;-75
2021/05/23 00:19:18;;;;;;;;;33.00;32.33;;;;;17.44;67.67;101118.81;5120210;27;9558;-75
2021/05/23 00:22:14;;;;;;;;;31.00;31.00;;;;;17.35;68.74;101123.03;5134432;27;9444;-76
2021/05/23 00:25:13;;;;;;;;;36.00;33.50;;;;;17.22;68.83;101127.91;5139104;27;9698;-75
2021/05/23 00:28:09;;;;;;;;;33.00;32.25;;;;;17.24;69.03;101117.19;5154454;27;9603;-75
2021/05/23 00:31:06;;;;;;;;;31.75;31.50;;;;;17.37;68.85;101120.66;5140543;27;9524;-75
2021/05/23 00:34:02;;;;;;;;;32.25;32.00;;;;;17.42;68.63;101118.41;5154181;27;9545;-75
2021/05/23 00:36:58;;;;;;;;;28.75;28.75;;;;;17.31;69.33;101111.75;5119836;27;9446;-75
2021/05/23 00:39:53;;;;;;;;;23.67;23.67;;;;;17.13;69.88;101102.97;5133543;27;9641;-75
2021/05/23 00:42:52;;;;;;;;;33.50;31.00;;;;;17.07;70.31;101098.03;5118986;27;9313;-74
2021/05/23 00:45:49;;;;;;;;;29.25;29.25;;;;;17.12;70.55;101094.97;5133387;27;9437;-76
2021/05/23 00:48:46;;;;;;;;;26.67;26.67;;;;;17.02;70.93;101089.94;5137445;27;9428;-75
2021/05/23 00:51:41;;;;;;;;;33.25;32.00;;;;;16.98;71.47;101092.66;5153798;27;9300;-74
2021/05/23 00:54:37;;;;;;;;;41.00;35.75;;;;;17.00;71.24;101087.50;5153678;27;9619;-75
2021/05/23 00:57:33;;;;;;;;;59.75;50.50;;;;;17.09;70.46;101081.72;5152964;27;10018;-75
2021/05/23 01:00:40;;;;;;;;;65.00;52.75;;;;;16.92;71.03;101077.34;5153706;27;10974;-74
2021/05/23 01:03:36;;;;;;;;;61.50;51.75;;;;;17.03;70.29;101072.81;5137399;27;11274;-75
2021/05/23 01:06:32;;;;;;;;;60.50;51.00;;;;;17.03;69.95;101074.81;5153602;27;11596;-75
2021/05/23 01:09:28;;;;;;;;;63.75;51.25;;;;;16.73;71.99;101078.13;5153606;27;11460;-75
2021/05/23 01:12:24;;;;;;;;;45.75;39.75;;;;;16.77;71.22;101073.41;5153696;27;10825;-75
2021/05/23 01:15:31;;;;;;;;;54.50;46.25;;;;;16.77;71.26;101070.63;5153408;27;11026;-75
2021/05/23 01:18:39;;;;;;;;;53.75;45.75;;;;;16.88;70.72;101068.09;5151941;27;10694;-75
2021/05/23 01:21:39;;;;;;;;;52.75;43.00;;;;;16.76;71.49;101069.00;5132944;27;10621;-75
2021/05/23 01:24:40;;;;;;;;;52.25;43.75;;;;;16.65;72.25;101056.75;5132757;27;11305;-75
2021/05/23 01:27:37;;;;;;;;;42.00;38.00;;;;;16.67;72.36;101068.38;5139513;27;10449;-76
2021/05/23 01:30:36;;;;;;;;;40.75;34.00;;;;;16.49;72.72;101070.75;5153475;27;10360;-75
2021/05/23 01:33:32;;;;;;;;;51.50;43.00;;;;;16.54;72.44;101081.63;5154315;27;10129;-75
2021/05/23 01:36:31;;;;;;;;;60.00;49.75;;;;;16.44;72.75;101084.16;5130963;27;10690;-76
2021/05/23 01:39:27;;;;;;;;;56.25;48.00;;;;;16.53;72.32;101079.19;5157678;27;11004;-73
2021/05/23 01:42:23;;;;;;;;;72.00;58.25;;;;;16.40;72.79;101084.88;5157810;27;11085;-74
2021/05/23 01:45:18;;;;;;;;;68.25;55.00;;;;;16.31;72.53;101089.81;5157614;27;11472;-75
2021/05/23 01:48:14;;;;;;;;;65.25;52.25;;;;;16.50;71.72;101093.88;5140805;27;11475;-74
2021/05/23 01:51:11;;;;;;;;;50.75;43.50;;;;;16.59;70.97;101098.09;5137151;27;11490;-74
2021/05/23 01:54:07;;;;;;;;;37.00;34.50;;;;;16.50;70.80;101108.66;5136512;27;10727;-74
2021/05/23 01:57:03;;;;;;;;;27.67;26.00;;;;;16.51;70.21;101107.47;5123601;27;9886;-73
2021/05/23 01:59:59;;;;;;;;;27.00;27.00;;;;;16.32;70.98;101110.97;5122810;27;9471;-74
2021/05/23 02:02:55;;;;;;;;;27.00;27.00;;;;;16.32;71.07;101115.75;5122698;27;9413;-74
2021/05/23 02:05:53;;;;;;;;;26.33;26.00;;;;;16.56;70.43;101111.97;5136464;27;9608;-74
2021/05/23 02:08:51;;;;;;;;;22.67;22.00;;;;;16.68;69.85;101111.88;5136356;27;9437;-73
2021/05/23 02:11:48;;;;;;;;;28.00;27.25;;;;;16.70;69.54;101115.13;5136257;27;9305;-73
2021/05/23 02:14:44;;;;;;;;;44.50;39.50;;;;;16.54;70.94;101112.34;5136060;27;9711;-73
2021/05/23 02:17:42;;;;;;;;;45.50;40.00;;;;;16.66;70.55;101101.06;5147270;27;10048;-73
2021/05/23 02:20:39;;;;;;;;;37.50;34.00;;;;;16.79;69.77;101098.19;5156813;27;10232;-73
2021/05/23 02:23:34;;;;;;;;;34.00;32.00;;;;;16.78;69.79;101104.94;5156807;27;10453;-74
2021/05/23 02:26:30;;;;;;;;;33.75;32.75;;;;;16.73;69.79;101116.41;5140237;27;9875;-73
2021/05/23 02:29:25;;;;;;;;;34.00;32.75;;;;;16.65;69.86;101116.22;5135968;27;9841;-74
2021/05/23 02:32:22;;;;;;;;;49.00;41.50;;;;;16.65;70.07;101112.63;5134673;27;9782;-74
2021/05/23 02:35:19;;;;;;;;;43.75;38.00;;;;;16.65;70.03;101119.00;5136607;27;10216;-73
2021/05/23 02:38:16;;;;;;;;;44.25;37.50;;;;;16.49;71.15;101117.41;5135767;27;10163;-73
2021/05/23 02:40:57;;;;;;;;;43.00;38.00;;;;;16.47;71.11;101112.16;5135788;27;10331;-73
2021/05/23 02:43:55;;;;;;;;;47.75;41.25;;;;;16.49;71.23;101114.59;5121933;27;10409;-74
2021/05/23 02:46:50;;;;;;;;;45.50;40.25;;;;;16.69;70.95;101119.09;5135670;27;10480;-74
2021/05/23 02:49:46;;;;;;;;;54.25;43.50;;;;;16.66;70.69;101122.59;5121983;27;10243;-73
2021/05/23 02:52:41;;;;;;;;;40.25;36.50;;;;;16.67;70.33;101116.66;5135408;27;10305;-73
2021/05/23 02:55:39;;;;;;;;;59.75;48.00;;;;;16.52;71.24;101127.84;5121774;27;10169;-73
2021/05/23 02:58:35;;;;;;;;;55.25;47.00;;;;;16.44;71.89;101123.25;5135283;27;11363;-73
2021/05/23 03:01:30;;;;;;;;;57.75;46.75;;;;;16.51;71.77;101117.84;5135146;27;10812;-74
2021/05/23 03:04:26;;;;;;;;;53.25;44.75;;;;;16.57;71.83;101116.41;5135263;27;10814;-74
2021/05/23 03:07:23;;;;;;;;;57.50;48.00;;;;;16.59;72.09;101116.84;5135016;27;10634;-73
2021/05/23 03:10:35;;;;;;;;;62.25;51.00;;;;;16.51;71.46;101117.84;5135160;27;10694;-73
2021/05/23 03:13:31;;;;;;;;;73.25;61.00;;;;;16.72;69.90;101123.19;5134880;27;11201;-72
2021/05/23 03:16:26;;;;;;;;;65.75;54.25;;;;;16.55;70.14;101125.13;5135092;27;11556;-73
2021/05/23 03:19:22;;;;;;;;;57.25;48.50;;;;;16.64;70.33;101122.16;5122447;27;11471;-73
2021/05/23 03:22:18;;;;;;;;;57.50;48.25;;;;;16.64;69.96;101113.78;5155640;27;11173;-75
2021/05/23 03:25:15;;;;;;;;;51.00;43.25;;;;;16.68;69.25;101117.47;5149873;27;10974;-73
2021/05/23 03:28:10;;;;;;;;;49.00;42.25;;;;;16.42;70.46;101122.81;5134707;27;10658;-73
2021/05/23 03:31:06;;;;;;;;;58.75;49.25;;;;;16.58;69.89;101130.00;5134758;27;10477;-73
2021/05/23 03:34:02;;;;;;;;;58.50;47.75;;;;;16.66;69.91;101128.19;5134645;27;11558;-75
2021/05/23 03:36:59;;;;;;;;;53.50;46.00;;;;;16.89;69.51;101129.19;5134689;27;10667;-74
2021/05/23 03:39:54;;;;;;;;;50.25;42.75;;;;;16.92;69.49;101131.25;5134619;27;10540;-74
2021/05/23 03:42:51;;;;;;;;;37.75;33.75;;;;;16.98;68.74;101131.78;5134332;27;10320;-74
2021/05/23 03:45:47;;;;;;;;;7.33;7.33;;;;;17.11;67.77;101130.50;5134498;27;9678;-73
2021/05/23 03:48:43;;;;;;;;;22.33;21.67;;;;;17.20;67.38;101128.28;5134461;27;9166;-73
2021/05/23 03:51:39;;;;;;;;;30.67;30.67;;;;;17.09;67.05;101138.41;5134390;27;9186;-74
2021/05/23 03:54:35;;;;;;;;;31.00;30.33;;;;;16.97;68.02;101143.31;5134099;27;9291;-74
2021/05/23 03:57:31;;;;;;;;;15.67;15.67;;;;;17.33;67.25;101145.75;5133940;27;9374;-74
2021/05/23 04:00:29;;;;;;;;;34.75;32.50;;;;;17.46;66.46;101149.22;5134323;27;9084;-75
2021/05/23 04:03:27;;;;;;;;;39.67;34.33;;;;;17.68;65.18;101161.66;5133618;27;9518;-73
2021/05/23 04:06:23;;;;;;;;;34.00;32.00;;;;;17.76;65.46;101169.06;5134095;27;9464;-73
2021/05/23 04:09:19;;;;;;;;;50.00;42.00;;;;;17.71;65.17;101170.19;5120214;27;9239;-73
2021/05/23 04:12:20;;;;;;;;;40.33;35.33;;;;;17.89;65.80;101172.53;5134048;27;9589;-74
2021/05/23 04:15:18;;;;;;;;;39.33;34.67;;;;;17.80;65.54;101180.34;5134588;27;9378;-75
2021/05/23 04:18:13;;;;;;;;;43.67;35.33;;;;;17.91;65.19;101184.16;5134199;27;9205;-76
2021/05/23 04:21:09;;;;;;;;;34.67;32.00;;;;;18.12;65.81;101162.19;5120079;27;9310;-75
2021/05/23 04:24:05;;;;;;;;;27.75;27.75;;;;;18.74;67.88;101164.91;5120020;27;9366;-76
2021/05/23 04:26:33;;;;;;;;;32.00;31.25;;;;;18.87;64.12;101160.72;5134897;27;8866;-75
2021/05/23 04:29:31;;;;;;;;;43.00;36.67;;;;;19.19;65.64;101171.63;5134016;27;8831;-76
2021/05/23 04:32:27;;;;;;;;;31.67;31.00;;;;;19.62;66.01;101168.22;5120221;27;9319;-77
2021/05/23 04:35:24;;;;;;;;;51.67;40.67;;;;;19.52;61.85;101173.69;5133942;27;9420;-77
2021/05/23 04:38:14;;;;;;;;;34.00;31.75;;;;;19.63;62.34;101177.47;5135361;27;9279;-77
2021/05/23 04:41:13;;;;;;;;;19.25;19.25;;;;;19.20;60.28;101176.03;5133823;27;8946;-77
2021/05/23 04:43:42;;;;;;;;;27.50;26.50;;;;;19.21;60.18;101186.06;5134711;27;8839;-76
2021/05/23 04:46:37;;;;;;;;;27.00;26.50;;;;;19.04;60.65;101187.41;5142299;27;8825;-77
2021/05/23 04:49:38;;;;;;;;;25.50;25.50;;;;;19.26;60.63;101189.38;5154217;27;8841;-78
2021/05/23 04:52:36;;;;;;;;;45.00;37.33;;;;;19.63;61.78;101189.53;5140180;27;8833;-77
2021/05/23 04:55:32;;;;;;;;;47.25;40.50;;;;;20.07;62.18;101177.59;5133561;27;9221;-78
2021/05/23 04:58:29;;;;;;;;;32.75;29.25;;;;;20.00;59.58;101194.38;5130918;27;9421;-77
2021/05/23 05:01:25;;;;;;;;;29.50;28.75;;;;;20.26;58.29;101188.66;5139616;27;8856;-77
2021/05/23 05:04:22;;;;;;;;;33.75;31.50;;;;;20.24;58.18;101187.41;5154118;27;8844;-78
2021/05/23 05:07:17;;;;;;;;;45.25;36.75;;;;;20.54;59.61;101176.91;5153922;27;8880;-77
2021/05/23 05:09:46;;;;;;;;;34.00;32.25;;;;;20.53;58.29;101197.78;5136589;27;8837;-78
2021/05/23 05:12:42;;;;;;;;;46.50;36.75;;;;;20.48;55.52;101195.34;5154225;27;8851;-77
2021/05/23 05:15:38;;;;;;;;;38.25;34.00;;;;;20.60;56.12;101193.44;5144433;27;8991;-77
2021/05/23 05:18:21;;;;;;;;;39.00;34.25;;;;;20.73;55.34;101192.75;5137581;27;8872;-75
2021/05/23 05:20:50;;;;;;;;;44.75;36.00;;;;;20.96;55.93;101188.94;5144467;27;8853;-76
2021/05/23 05:23:45;;;;;;;;;45.00;36.50;;;;;21.16;53.69;101192.25;5152290;27;8832;-76
2021/05/23 05:26:41;;;;;;;;;43.00;36.25;;;;;21.36;54.04;101188.03;5135952;27;9565;-77
2021/05/23 05:29:37;;;;;;;;;51.25;43.75;;;;;21.47;53.50;101183.28;5138269;27;8831;-75
2021/05/23 05:32:27;;;;;;;;;46.25;38.50;;;;;21.66;52.44;101176.53;5133973;27;8835;-76
2021/05/23 05:35:23;;;;;;;;;51.50;41.75;;;;;21.78;52.63;101170.56;5137197;27;8868;-76
2021/05/23 05:38:20;;;;;;;;;50.25;40.75;;;;;21.81;50.89;101177.41;5132587;27;8819;-75
2021/05/23 05:41:17;;;;;;;;;49.75;40.50;;;;;21.93;49.82;101179.88;5135972;27;9550;-76
2021/05/23 05:44:02;;;;;;;;;44.00;36.00;;;;;22.26;50.38;101175.97;5116768;27;8829;-76
2021/05/23 05:46:30;;;;;;;;;45.33;38.33;;;;;22.41;50.18;101188.88;5128247;27;8817;-77
2021/05/23 05:48:59;;;;;;;;;51.00;39.25;;;;;22.67;48.83;101186.88;5137841;27;8823;-78
2021/05/23 05:51:54;;;;;;;;;45.50;36.50;;;;;22.97;50.48;101178.03;5145762;27;8833;-77
2021/05/23 05:54:23;;;;;;;;;52.25;42.50;;;;;23.01;47.40;101176.84;5142443;27;8837;-75
2021/05/23 05:56:52;;;;;;;;;60.00;47.67;;;;;23.26;44.66;101187.28;5144431;27;8850;-75
2021/05/23 05:59:47;;;;;;;;;55.50;45.00;;;;;23.31;41.58;101186.88;5132909;27;8933;-73
2021/05/23 06:02:43;;;;;;;;;48.75;40.50;;;;;23.45;42.35;101181.19;5131717;27;8859;-75
2021/05/23 06:05:39;;;;;;;;;56.00;45.00;;;;;23.69;40.85;101175.88;5130301;27;8851;-76
2021/05/23 06:08:34;;;;;;;;;50.75;42.50;;;;;23.68;39.05;101179.94;5131172;27;8839;-77
2021/05/23 06:11:20;;;;;;;;;53.50;44.00;;;;;23.88;39.00;101174.63;5131573;27;8843;-75
2021/05/23 06:13:54;;;;;;;;;55.75;45.75;;;;;23.95;38.57;101181.03;5133754;27;9594;-75
2021/05/23 06:16:50;;;;;;;;;45.50;36.00;;;;;24.02;37.97;101178.19;5130000;27;8862;-74
2021/05/23 06:19:47;;;;;;;;;33.00;31.50;;;;;24.39;38.77;101173.97;5133230;27;8916;-75
2021/05/23 06:22:44;;;;;;;;;45.25;39.00;;;;;24.59;38.57;101177.84;5132871;27;8903;-74
2021/05/23 06:25:39;;;;;;;;;35.75;32.50;;;;;24.79;37.37;101186.56;5140866;27;8839;-74
2021/05/23 06:28:21;;;;;;;;;43.50;36.25;;;;;24.88;37.81;101175.56;5143826;27;8828;-75
2021/05/23 06:30:49;;;;;;;;;42.50;36.75;;;;;24.73;37.09;101176.91;5141526;27;8851;-75
2021/05/23 06:33:18;;;;;;;;;34.50;32.25;;;;;24.94;38.06;101178.78;5157224;27;8821;-74
2021/05/23 06:36:13;;;;;;;;;32.00;31.00;;;;;25.02;35.32;101174.66;5141508;27;8854;-75
2021/05/23 06:39:09;;;;;;;;;30.20;29.40;;;;;24.99;34.74;101177.50;5135047;27;8884;-76
2021/05/23 06:42:06;;;;;;;;;37.75;33.25;;;;;25.33;36.25;101183.28;5145335;27;8809;-75
2021/05/23 06:44:48;;;;;;;;;29.25;29.00;;;;;25.34;35.81;101180.00;5130749;27;8921;-76
2021/05/23 06:47:44;;;;;;;;;40.25;34.75;;;;;25.44;34.77;101178.28;5141518;27;8819;-75
2021/05/23 06:50:40;;;;;;;;;43.00;36.60;;;;;25.61;35.11;101177.31;5140434;27;8855;-76
2021/05/23 06:53:36;;;;;;;;;19.20;19.20;;;;;25.54;34.59;101177.38;5142313;27;8838;-77
2021/05/23 06:56:09;;;;;;;;;14.80;13.60;;;;;25.39;32.62;101182.41;5126897;27;8842;-78
2021/05/23 06:59:05;;;;;;;;;14.20;14.20;;;;;25.16;33.94;101191.53;5122467;27;8920;-79
2021/05/23 07:02:00;;;;;;;;;9.80;9.80;;;;;25.27;31.93;101187.78;5149045;27;8827;-78
2021/05/23 07:04:57;;;;;;;;;13.00;13.00;;;;;25.77;34.30;101186.03;5149442;27;8919;-79
2021/05/23 07:07:53;;;;;;;;;11.80;11.80;;;;;25.57;32.68;101198.38;5136121;27;8819;-77
2021/05/23 07:10:21;;;;;;;;;10.80;10.80;;;;;26.02;34.49;101196.22;5154959;27;8841;-78
2021/05/23 07:12:52;;;;;;;;;15.00;13.80;;;;;26.19;32.77;101195.19;5152265;27;8823;-78
2021/05/23 07:15:50;;;;;;;;;9.00;9.00;;;;;26.05;31.54;101201.03;5126539;27;8857;-78
2021/05/23 07:18:48;;;;;;;;;13.60;13.60;;;;;25.99;32.20;101203.56;5116515;27;8815;-80
2021/05/23 07:21:44;;;;;;;;;18.00;18.00;;;;;25.91;31.94;101207.69;5135271;27;9599;-79
2021/05/23 07:24:26;;;;;;;;;9.60;9.60;;;;;26.31;32.12;101196.66;5143592;27;8934;-78
2021/05/23 07:27:21;;;;;;;;;8.00;8.00;;;;;26.22;30.92;101202.81;5137537;27;9595;-77
2021/05/23 07:30:18;;;;;;;;;8.60;8.60;;;;;26.22;30.21;101199.97;5141791;27;8863;-78
2021/05/23 07:32:47;;;;;;;;;14.60;14.60;;;;;26.44;32.03;101199.72;5144158;27;8999;-78
2021/05/23 07:35:42;;;;;;;;;8.80;8.80;;;;;26.86;31.91;101201.88;5134649;27;8858;-78
2021/05/23 07:38:40;;;;;;;;;11.60;11.60;;;;;26.98;32.12;101202.50;5134714;27;8826;-77
2021/05/23 07:41:09;;;;;;;;;15.00;14.20;;;;;27.20;31.81;101198.06;5119637;27;8868;-77
2021/05/23 07:43:39;;;;;;;;;16.40;16.40;;;;;27.44;31.73;101202.47;5140949;27;8827;-77
2021/05/23 07:46:34;;;;;;;;;13.00;13.00;;;;;27.66;31.58;101196.38;5137562;27;8823;-76
2021/05/23 07:49:04;;;;;;;;;13.00;13.00;;;;;27.55;32.03;101201.50;5154756;27;8853;-78
2021/05/23 07:51:59;;;;;;;;;13.00;13.00;;;;;27.32;30.25;101205.97;5120934;27;8827;-77
2021/05/23 07:54:42;;;;;;;;;14.40;13.00;;;;;27.71;32.17;101207.28;5135701;27;9624;-77
2021/05/23 07:57:24;;;;;;;;;10.80;10.80;;;;;27.58;30.64;101203.44;5127581;27;8857;-77
2021/05/23 07:59:52;;;;;;;;;9.00;7.20;;;;;27.04;30.03;101203.63;5118184;27;8911;-77
2021/05/23 08:02:34;;;;;;;;;7.80;7.80;;;;;27.61;30.56;101205.44;5136117;27;8845;-79
2021/05/23 08:05:16;;;;;;;;;6.40;6.40;;;;;27.74;31.08;101212.06;5141465;27;8821;-76
2021/05/23 08:08:08;;;;;;;;;6.00;6.00;;;;;28.02;29.19;101207.84;5107835;27;8847;-77
2021/05/23 08:10:40;;;;;;;;;6.80;6.80;;;;;27.79;29.92;101211.56;5135396;27;8845;-76
2021/05/23 08:13:08;;;;;;;;;6.80;6.80;;;;;27.79;29.22;101211.56;5134949;27;9642;-76
2021/05/23 08:16:06;;;;;;;;;8.80;8.80;;;;;28.03;29.40;101206.59;5134527;27;8887;-76
2021/05/23 08:18:43;;;;;;;;;7.00;7.00;;;;;28.17;29.29;101211.19;5149069;27;8840;-75
2021/05/23 08:21:12;;;;;;;;;6.60;6.60;;;;;27.98;30.60;101216.44;5145527;27;8839;-75
2021/05/23 08:23:42;;;;;;;;;2.40;1.40;;;;;27.92;29.64;101209.69;5134932;27;8827;-80
2021/05/23 08:26:14;;;;;;;;;3.00;3.00;;;;;27.98;29.25;101209.94;5135042;27;8949;-76
2021/05/23 08:28:42;;;;;;;;;5.80;5.80;;;;;28.25;29.29;101221.97;5134902;27;9556;-76
2021/05/23 08:31:10;;;;;;;;;7.40;7.40;;;;;28.63;28.43;101220.72;5116554;27;9587;-76
2021/05/23 08:33:38;;;;;;;;;5.40;5.40;;;;;28.89;28.32;101219.66;5116744;27;8843;-76
2021/05/23 08:36:09;;;;;;;;;5.60;5.40;;;;;28.55;27.93;101219.28;5136088;27;8893;-77
2021/05/23 08:38:39;;;;;;;;;6.60;6.20;;;;;29.01;27.79;101206.78;5135448;27;8873;-76
2021/05/23 08:41:08;;;;;;;;;5.40;5.40;;;;;28.49;28.30;101216.16;5135018;27;8835;-78
2021/05/23 08:44:04;;;;;;;;;6.20;6.20;;;;;28.82;27.95;101222.69;5119746;27;9216;-76
2021/05/23 08:47:01;;;;;;;;;6.60;6.60;;;;;29.04;25.69;101218.06;5133587;27;9552;-76
2021/05/23 08:49:52;;;;;;;;;3.20;3.20;;;;;29.25;26.00;101218.78;5152645;27;8841;-76
2021/05/23 08:52:57;;;;;;;;;3.20;3.20;;;;;29.60;24.69;101220.69;5146459;27;8875;-77
2021/05/23 08:55:30;;;;;;;;;1.00;1.00;;;;;29.76;23.67;101213.34;5146629;27;8913;-78
2021/05/23 08:58:00;;;;;;;;;0.60;0.60;;;;;29.73;22.06;101211.38;5153871;27;8837;-75
2021/05/23 09:00:55;;;;;;;;;0.60;0.60;;;;;29.78;21.61;101211.63;5152915;27;8849;-74
2021/05/23 09:04:05;;;;;;;;;0.80;0.80;;;;;29.79;22.25;101206.72;5141251;27;8910;-76
2021/05/23 09:06:47;;;;;;;;;1.00;1.00;;;;;30.14;22.69;101214.25;5115009;27;8832;-75
2021/05/23 09:09:47;;;;;;;;;1.00;1.00;;;;;30.46;22.64;101218.16;5133834;27;8823;-75
2021/05/23 09:12:46;;;;;;;;;1.40;1.40;;;;;30.29;23.52;101208.09;5133062;27;8894;-75
2021/05/23 09:15:17;;;;;;;;;1.60;1.60;;;;;29.81;23.35;101207.06;5133263;27;8827;-76
2021/05/23 09:18:15;;;;;;;;;2.20;2.20;;;;;30.08;24.36;101206.69;5129720;27;8839;-77
2021/05/23 09:21:18;;;;;;;;;1.40;1.40;;;;;29.78;24.25;101202.28;5153707;27;8840;-76
2021/05/23 09:24:03;;;;;;;;;1.00;1.00;;;;;29.94;24.33;101192.84;5135808;27;9590;-76
2021/05/23 09:27:05;;;;;;;;;2.00;2.00;;;;;29.97;25.12;101201.28;5140057;27;8813;-77
2021/05/23 09:29:35;;;;;;;;;0.60;0.60;;;;;29.65;24.60;101198.56;5147679;27;9636;-75
2021/05/23 09:32:38;;;;;;;;;0.40;0.40;;;;;30.02;25.35;101192.19;5138134;27;9613;-74
2021/05/23 09:35:08;;;;;;;;;1.00;1.00;;;;;30.06;24.91;101192.06;5140707;27;9552;-74
2021/05/23 09:37:44;;;;;;;;;1.40;1.40;;;;;29.95;24.81;101194.44;5121078;27;8839;-75
2021/05/23 09:40:23;;;;;;;;;0.40;0.40;;;;;30.36;23.99;101190.75;5143977;27;8829;-75
2021/05/23 09:42:56;;;;;;;;;0.80;0.80;;;;;30.16;24.71;101193.81;5140489;27;8837;-74
2021/05/23 09:45:38;;;;;;;;;0.80;0.80;;;;;30.66;24.17;101197.97;5142076;27;8892;-75
2021/05/23 09:48:08;;;;;;;;;2.40;2.40;;;;;30.48;23.98;101192.00;5141941;27;8832;-75
2021/05/23 09:50:38;;;;;;;;;2.80;2.80;;;;;30.58;23.20;101188.00;5120852;27;8827;-75
2021/05/23 09:53:32;;;;;;;;;2.00;2.00;;;;;30.47;23.96;101188.38;5121276;27;8843;-78
2021/05/23 09:56:32;;;;;;;;;2.00;2.00;;;;;30.77;24.01;101184.16;5149513;27;8873;-75
2021/05/23 09:59:31;;;;;;;;;0.00;0.00;;;;;30.70;23.94;101185.19;5142140;27;8817;-75
2021/05/23 10:02:07;;;;;;;;;1.00;1.00;;;;;30.63;24.41;101179.69;5126864;27;8823;-75
2021/05/23 10:04:40;;;;;;;;;1.00;1.00;;;;;30.78;22.98;101176.38;5150652;27;8885;-75
2021/05/23 10:07:11;;;;;;;;;0.60;0.60;;;;;31.19;23.62;101176.16;5150678;27;8829;-75
2021/05/23 10:09:55;;;;;;;;;2.00;2.00;;;;;31.18;23.38;101174.56;5149272;27;8831;-76
2021/05/23 10:12:23;;;;;;;;;1.80;1.80;;;;;31.13;23.55;101175.16;5145523;27;8837;-76
2021/05/23 10:15:19;;;;;;;;;0.40;0.40;;;;;30.04;22.85;101169.69;5143686;27;8905;-75
2021/05/23 10:18:15;;;;;;;;;0.00;0.00;;;;;30.09;23.80;101154.91;5137350;27;8847;-83
2021/05/23 10:21:12;;;;;;;;;1.00;1.00;;;;;30.73;23.77;101164.25;5136576;27;8899;-81
2021/05/23 10:23:56;;;;;;;;;2.00;2.00;;;;;30.50;22.69;101164.59;5136880;27;8835;-81
2021/05/23 10:26:58;;;;;;;;;0.40;0.40;;;;;30.98;22.04;101162.63;5136572;27;8835;-80
2021/05/23 10:29:27;;;;;;;;;1.20;1.20;;;;;31.41;21.95;101155.41;5137998;27;8827;-87
2021/05/23 10:32:32;;;;;;;;;1.00;1.00;;;;;31.53;21.82;101158.22;5123158;27;8865;-85
2021/05/23 10:35:17;;;;;;;;;0.20;0.20;;;;;31.85;21.60;101155.44;5155879;27;8837;-82
2021/05/23 10:38:15;;;;;;;;;0.80;0.80;;;;;31.55;22.14;101160.59;5154803;27;8829;-83
2021/05/23 10:40:54;;;;;;;;;1.80;1.80;;;;;31.92;21.95;101150.22;5145978;27;8819;-85
2021/05/23 10:44:01;;;;;;;;;0.20;0.20;;;;;32.10;21.18;101158.09;5135643;27;8833;-84
2021/05/23 10:46:43;;;;;;;;;1.00;1.00;;;;;31.39;22.63;101158.72;5139279;27;8882;-88
2021/05/23 10:49:11;;;;;;;;;0.40;0.40;;;;;31.43;21.19;101153.66;5140547;27;8835;-90
2021/05/23 10:52:16;;;;;;;;;1.40;1.00;;;;;31.60;21.38;101151.44;5139390;27;8825;-89
2021/05/23 10:55:09;;;;;;;;;0.60;0.60;;;;;32.21;21.42;101154.81;5126537;27;8843;-84
2021/05/23 10:57:51;;;;;;;;;0.80;0.80;;;;;32.25;21.33;101159.13;5138634;27;8852;-84
2021/05/23 11:00:27;;;;;;;;;0.00;0.00;;;;;32.44;21.59;101160.03;5142820;27;8832;-91
2021/05/23 11:03:26;;;;;;;;;1.80;1.80;;;;;32.62;20.97;101153.56;5145622;27;8983;-92
2021/05/23 11:06:22;;;;;;;;;0.80;0.80;;;;;32.42;20.16;101162.56;5141142;27;8828;-84
2021/05/23 11:09:23;;;;;;;;;0.00;0.00;;;;;32.24;21.25;101156.72;5157974;27;9616;-83
2021/05/23 11:12:10;;;;;;;;;0.40;0.40;;;;;32.21;20.38;101155.63;5158280;27;9624;-87
2021/05/23 11:14:56;;;;;;;;;1.00;1.00;;;;;31.89;20.23;101156.88;5152233;27;8852;-87
2021/05/23 11:17:54;;;;;;;;;1.00;1.00;;;;;31.32;19.71;101166.75;5149604;27;8961;-87
2021/05/23 11:20:24;;;;;;;;;1.60;1.60;;;;;31.30;21.28;101152.16;5138617;27;8831;-82
2021/05/23 11:23:03;;;;;;;;;0.40;0.00;;;;;31.46;21.64;101157.69;5120468;27;8843;-83
2021/05/23 11:25:33;;;;;;;;;0.00;0.00;;;;;32.01;20.46;101150.28;5136723;27;8827;-81
2021/05/23 11:28:08;;;;;;;;;1.40;1.40;;;;;32.35;20.35;101149.31;5125187;27;8833;-86
2021/05/23 11:30:50;;;;;;;;;0.40;0.40;;;;;32.15;20.06;101146.06;5155775;27;8892;-91
2021/05/23 11:33:50;;;;;;;;;1.00;1.00;;;;;32.45;19.92;101141.59;5127185;27;8869;-86
2021/05/23 11:36:46;;;;;;;;;0.00;0.00;;;;;32.35;19.10;101140.75;5123444;27;8871;-86
2021/05/23 11:39:17;;;;;;;;;1.00;1.00;;;;;32.62;19.64;101139.25;5136083;27;8855;-84
2021/05/23 11:41:49;;;;;;;;;0.00;0.00;;;;;32.32;18.86;101141.69;5151330;27;8898;-82
2021/05/23 11:44:18;;;;;;;;;0.00;0.00;;;;;32.46;18.87;101148.09;5138737;27;8821;-86
2021/05/23 11:46:50;;;;;;;;;0.00;0.00;;;;;32.50;19.65;101143.81;5140124;27;8833;-84
2021/05/23 11:49:30;;;;;;;;;0.00;0.00;;;;;33.04;19.11;101144.41;5158897;27;8841;-84
2021/05/23 11:51:59;;;;;;;;;0.00;0.00;;;;;33.41;18.58;101148.13;5139067;27;8841;-85
2021/05/23 11:54:27;;;;;;;;;0.00;0.00;;;;;33.31;18.38;101144.44;5139109;27;8821;-84
2021/05/23 11:56:55;;;;;;;;;0.00;0.00;;;;;32.71;19.50;101142.13;5140676;27;8861;-84
2021/05/23 11:59:30;;;;;;;;;0.00;0.00;;;;;32.42;19.90;101136.00;5165414;27;8825;-86
2021/05/23 12:02:00;;;;;;;;;1.40;1.40;;;;;32.72;20.22;101137.97;5147733;27;8877;-81
2021/05/23 12:04:29;;;;;;;;;1.00;1.00;;;;;32.44;19.72;101125.69;5175266;27;8859;-92
2021/05/23 12:06:58;;;;;;;;;1.00;1.00;;;;;32.44;20.81;101131.41;5160729;27;8848;-89
2021/05/23 12:09:35;;;;;;;;;0.00;0.00;;;;;32.56;20.91;101130.47;5142325;27;8844;-93
2021/05/23 12:12:13;;;;;;;;;0.00;0.00;;;;;32.69;20.39;101132.41;5143451;27;8820;-93
2021/05/23 12:14:51;;;;;;;;;0.00;0.00;;;;;32.76;20.12;101135.78;5105340;27;9619;-91
2021/05/23 12:17:19;;;;;;;;;0.00;0.00;;;;;33.22;20.31;101135.84;5118035;27;8915;-88
2021/05/23 12:19:49;;;;;;;;;0.00;0.00;;;;;33.53;20.57;101124.22;5124148;27;8886;-82
2021/05/23 12:22:26;;;;;;;;;0.00;0.00;;;;;33.32;19.97;101123.09;5149646;27;8832;-84
2021/05/23 12:24:58;;;;;;;;;0.20;0.20;;;;;33.20;21.22;101132.63;5128318;27;8840;-87
2021/05/23 12:27:42;;;;;;;;;0.00;0.00;;;;;33.28;18.69;101125.34;5126202;27;8848;-88
2021/05/23 12:30:21;;;;;;;;;0.00;0.00;;;;;33.18;18.58;101120.88;5146477;27;8859;-88
2021/05/23 12:33:10;;;;;;;;;0.80;0.80;;;;;33.71;18.57;101131.97;5128077;27;8923;-86
2021/05/23 12:35:47;;;;;;;;;0.00;0.00;;;;;33.54;19.66;101127.88;5142492;27;8837;-80
2021/05/23 12:38:16;;;;;;;;;0.00;0.00;;;;;34.04;18.73;101125.53;5128759;27;8840;-88
2021/05/23 12:40:50;;;;;;;;;0.00;0.00;;;;;33.35;18.90;101132.78;5114555;27;8908;-88
2021/05/23 12:43:23;;;;;;;;;0.00;0.00;;;;;33.51;18.81;101140.28;5134464;27;8833;-85
2021/05/23 12:46:09;;;;;;;;;0.20;0.20;;;;;33.18;19.91;101136.00;5130192;27;8955;-88
2021/05/23 12:48:45;;;;;;;;;3.00;1.00;;;;;33.71;19.07;101131.97;5144313;27;8842;-90
2021/05/23 12:51:30;;;;;;;;;29.80;13.60;;;;;33.88;19.02;101136.06;5141649;27;8835;-88
2021/05/23 12:53:58;;;;;;;;;0.00;0.00;;;;;33.68;18.94;101142.34;5132351;27;8871;-88
2021/05/23 12:56:30;;;;;;;;;0.00;0.00;;;;;33.41;19.28;101148.91;5123579;27;8915;-89
2021/05/23 12:59:05;;;;;;;;;0.00;0.00;;;;;33.90;19.04;101141.38;5104873;27;8942;-89